Aérodrome :
LOGIN :

S'inscrire | Disclaimer

   EN    FR    IT 

 










Légende :    VFR   VFR Marginal   IFR   IFR Intensif   IFR Très Intensif
Visi : 
Plafond : 
>= 8 km
>= 3000ft
5 à 8 km
1000 à 3000 ft
1500m à 5 km
500 à 1000 ft
800 à 1500m
200 à 500 ft
< 800m
< 200 ft
Symboles :   Orages  Brouillard  Fortes neiges  Fortes précipitations  Vent > 20 kt
SIGMETs :   Divers  Orages  Givrage  Turbulence  Onde Orograph.  Cendres Volcan.






- Altitude de l'aérodrome : 308 ft


ESIA - Karlsborg Air Base

DERNIER METAR :
  • 201520Z AUTO 07009KT 9999 OVC018/// 07/05 Q1024

METARs EXPIRÉS :
  • 201450Z 08008KT 9999 SCT018 BKN062 BKN210 06/05 Q1024
  • 201420Z 10009KT 9999 FEW016 BKN060 07/05 Q1024
  • 201350Z 09007KT CAVOK 06/05 Q1024
  • 201320Z 09007KT CAVOK 06/05 Q1024
  • 201250Z 09006KT 9999 FEW016 BKN072 07/05 Q1024

Prévision TAF périmée.



MET'MAP, la Météo Aéronautique d'un coup d'oeil ! - Copyright ORBIFLY Décembre 2007 - Disclaimer

ORBIFLY MET'MAP TEAM :

Programmation & Développement : Alexandra Zaïnal
Conception & Développement : Baudouin d'Aumeries
Co-Programmation & Développement : Marc-Olivier Méhu
Soutien technique & logistique : Manuel Goepfert

Contact : metmap@orbifly.com




SOURCES & CREDITS :

   NOAA